createdAt,value
2022-12-01T00:01:15.575Z,5.77
2022-12-01T00:03:42.971Z,5.76
2022-12-01T00:06:12.768Z,5.79
2022-12-01T00:08:39.567Z,5.77
2022-12-01T00:11:09.516Z,5.78
2022-12-01T00:13:36.863Z,5.78
2022-12-01T00:16:14.394Z,5.77
2022-12-01T00:18:41.319Z,5.78
2022-12-01T00:21:14.809Z,5.78
2022-12-01T00:23:47.409Z,5.77
2022-12-01T00:26:15.809Z,5.77
2022-12-01T00:28:42.730Z,5.77
2022-12-01T00:31:10.886Z,5.79
2022-12-01T00:33:38.268Z,5.79
2022-12-01T00:36:05.911Z,5.80
2022-12-01T00:38:33.587Z,5.79
2022-12-01T00:41:00.628Z,5.81
2022-12-01T00:43:27.562Z,5.82
2022-12-01T00:45:56.465Z,5.80
2022-12-01T00:48:23.893Z,5.81
2022-12-01T00:50:52.689Z,5.79
2022-12-01T00:53:19.810Z,5.78
2022-12-01T00:55:46.723Z,5.81
2022-12-01T00:58:13.545Z,5.79
2022-12-01T01:00:40.338Z,5.69
2022-12-01T01:03:07.698Z,5.77
2022-12-01T01:05:39.881Z,5.80
2022-12-01T01:08:08.457Z,5.82
2022-12-01T01:10:41.677Z,5.79
2022-12-01T01:13:09.221Z,5.80
2022-12-01T01:15:36.424Z,5.70
2022-12-01T01:18:04.137Z,5.76
2022-12-01T01:20:31.355Z,5.76
2022-12-01T01:22:58.207Z,5.80
2022-12-01T01:25:25.543Z,5.79
2022-12-01T01:27:52.407Z,5.81
2022-12-01T01:30:19.426Z,5.81
2022-12-01T01:32:46.194Z,5.79
2022-12-01T01:35:13.051Z,5.81
2022-12-01T01:37:39.839Z,5.78
2022-12-01T01:40:07.084Z,5.78
2022-12-01T01:42:34.035Z,5.80
2022-12-01T01:45:00.884Z,5.83
2022-12-01T01:47:30.632Z,5.83
2022-12-01T01:50:05.855Z,5.79
2022-12-01T01:52:36.567Z,5.76
2022-12-01T01:55:03.575Z,5.80
2022-12-01T01:57:33.398Z,5.71
2022-12-01T02:00:12.952Z,5.81
2022-12-01T02:02:44.944Z,5.82
2022-12-01T02:05:25.042Z,5.80
2022-12-01T02:07:55.225Z,5.77
2022-12-01T02:10:31.036Z,5.71
2022-12-01T02:13:30.518Z,5.71
2022-12-01T02:16:03.115Z,5.68
2022-12-01T02:18:58.851Z,5.64
2022-12-01T02:21:37.226Z,5.63
2022-12-01T02:24:45.692Z,5.65
2022-12-01T02:27:29.572Z,5.65
2022-12-01T02:30:25.700Z,5.55
2022-12-01T02:32:56.962Z,5.58
2022-12-01T02:35:41.670Z,5.60
2022-12-01T02:38:08.398Z,5.63
2022-12-01T02:41:07.528Z,5.68
2022-12-01T02:43:46.110Z,5.74
2022-12-01T02:46:19.927Z,5.77
2022-12-01T02:48:51.202Z,5.77
2022-12-01T02:51:24.760Z,5.75
2022-12-01T02:53:52.675Z,5.76
2022-12-01T02:56:22.282Z,5.69
2022-12-01T02:58:49.122Z,5.75
2022-12-01T03:01:32.393Z,5.75
2022-12-01T03:04:37.055Z,5.78
2022-12-01T03:07:54.440Z,5.79
2022-12-01T03:10:45.602Z,5.81
2022-12-01T03:13:24.444Z,5.78
2022-12-01T03:16:09.139Z,5.81
2022-12-01T03:18:42.390Z,5.83
2022-12-01T03:21:38.112Z,5.82
2022-12-01T03:24:11.646Z,5.75
2022-12-01T03:26:42.508Z,5.80
2022-12-01T03:29:16.810Z,5.79
2022-12-01T03:31:48.026Z,5.80
2022-12-01T03:34:29.494Z,5.82
2022-12-01T03:37:01.640Z,5.83
2022-12-01T03:39:35.826Z,5.84
2022-12-01T03:42:11.315Z,5.83
2022-12-01T03:44:54.075Z,5.83
2022-12-01T03:47:24.975Z,5.84
2022-12-01T03:49:53.537Z,5.84
2022-12-01T03:52:23.112Z,5.84
2022-12-01T03:55:02.412Z,5.85
2022-12-01T03:57:40.873Z,5.78
2022-12-01T04:00:08.553Z,5.80
2022-12-01T04:02:37.472Z,5.74
2022-12-01T04:05:09.396Z,5.77
2022-12-01T04:07:37.944Z,5.83
2022-12-01T04:10:06.311Z,5.83
2022-12-01T04:12:33.654Z,5.86
2022-12-01T04:15:03.259Z,5.85
2022-12-01T04:17:30.806Z,5.83
2022-12-01T04:19:57.887Z,5.84
2022-12-01T04:22:25.384Z,5.83
2022-12-01T04:24:53.143Z,5.77
2022-12-01T04:27:20.375Z,5.78
2022-12-01T04:29:47.892Z,5.81
2022-12-01T04:32:14.925Z,5.79
2022-12-01T04:34:42.220Z,5.79
2022-12-01T04:37:10.118Z,5.77
2022-12-01T04:39:37.267Z,5.77
2022-12-01T04:42:04.749Z,5.79
2022-12-01T04:44:34.779Z,5.78
2022-12-01T04:47:03.904Z,5.79
2022-12-01T04:49:31.566Z,5.80
2022-12-01T04:51:58.448Z,5.79
2022-12-01T04:54:25.996Z,5.81
2022-12-01T04:56:53.051Z,5.81
2022-12-01T04:59:19.879Z,5.79
2022-12-01T05:01:48.225Z,5.79
2022-12-01T05:04:15.782Z,5.81
2022-12-01T05:06:43.042Z,5.79
2022-12-01T05:09:17.210Z,5.79
2022-12-01T05:11:45.004Z,5.80
2022-12-01T05:14:11.785Z,5.78
2022-12-01T05:16:38.842Z,5.78
2022-12-01T05:19:24.844Z,5.80
2022-12-01T05:21:52.111Z,5.78
2022-12-01T05:24:20.113Z,5.78
2022-12-01T05:26:47.132Z,5.80
2022-12-01T05:29:14.124Z,5.77
2022-12-01T05:31:41.218Z,5.68
2022-12-01T05:34:08.371Z,5.65
2022-12-01T05:36:35.250Z,5.64
2022-12-01T05:39:02.101Z,5.61
2022-12-01T05:41:28.851Z,5.62
2022-12-01T05:43:55.635Z,5.61
2022-12-01T05:46:22.556Z,5.59
2022-12-01T05:48:49.407Z,5.57
2022-12-01T05:51:17.303Z,5.60
2022-12-01T05:53:44.801Z,5.65
2022-12-01T05:56:12.178Z,5.73
2022-12-01T05:58:39.397Z,5.73
2022-12-01T06:01:06.191Z,5.72
2022-12-01T06:03:33.138Z,5.61
2022-12-01T06:05:59.982Z,5.59
2022-12-01T06:08:26.961Z,5.56
2022-12-01T06:10:53.761Z,5.55
2022-12-01T06:13:20.609Z,5.64
2022-12-01T06:15:56.302Z,5.68
2022-12-01T06:18:23.950Z,5.69
2022-12-01T06:20:50.725Z,5.69
2022-12-01T06:23:17.528Z,5.65
2022-12-01T06:25:44.574Z,5.52
2022-12-01T06:28:11.344Z,5.50
2022-12-01T06:30:38.196Z,5.49
2022-12-01T06:33:05.091Z,5.50
2022-12-01T06:35:31.921Z,5.54
2022-12-01T06:37:58.768Z,5.60
2022-12-01T06:40:25.610Z,5.62
2022-12-01T06:42:52.478Z,5.62
2022-12-01T06:45:19.330Z,5.57
2022-12-01T06:47:48.541Z,5.53
2022-12-01T06:50:15.422Z,5.52
2022-12-01T06:52:42.196Z,5.60
2022-12-01T06:55:09.289Z,5.53
2022-12-01T06:57:36.221Z,5.49
2022-12-01T07:00:04.447Z,5.50
2022-12-01T07:02:31.747Z,5.50
2022-12-01T07:04:58.665Z,5.57
2022-12-01T07:07:25.506Z,5.53
2022-12-01T07:09:52.365Z,5.51
2022-12-01T07:12:19.136Z,5.59
2022-12-01T07:14:45.987Z,5.54
2022-12-01T07:17:13.878Z,5.55
2022-12-01T07:19:40.738Z,5.58
2022-12-01T07:22:07.538Z,5.54
2022-12-01T07:24:34.414Z,5.52
2022-12-01T07:27:01.226Z,5.53
2022-12-01T07:29:28.023Z,5.53
2022-12-01T07:31:55.014Z,5.51
2022-12-01T07:34:21.801Z,5.52
2022-12-01T07:36:48.634Z,5.53
2022-12-01T07:51:39.854Z,5.54
2022-12-01T07:54:07.815Z,5.51
2022-12-01T07:56:34.627Z,5.53
2022-12-01T07:59:01.375Z,5.52
2022-12-01T08:01:28.132Z,5.54
2022-12-01T08:03:57.526Z,5.56
2022-12-01T08:06:25.598Z,5.60
2022-12-01T08:08:52.895Z,5.58
2022-12-01T08:11:25.696Z,5.59
2022-12-01T08:13:53.470Z,5.58
2022-12-01T08:16:22.546Z,5.59
2022-12-01T08:18:49.957Z,5.59
2022-12-01T08:21:18.776Z,5.60
2022-12-01T08:23:45.647Z,5.63
2022-12-01T08:26:15.461Z,5.70
2022-12-01T08:28:43.450Z,5.71
2022-12-01T08:31:14.813Z,5.65
2022-12-01T08:33:41.758Z,5.71
2022-12-01T08:36:09.126Z,5.75
2022-12-01T08:38:36.248Z,5.72
2022-12-01T08:41:08.392Z,5.69
2022-12-01T08:46:34.977Z,5.72
2022-12-01T08:49:03.083Z,5.74
2022-12-01T08:51:30.208Z,5.75
2022-12-01T08:53:58.563Z,5.77
2022-12-01T08:56:29.324Z,5.78
2022-12-01T08:58:56.221Z,5.89
2022-12-01T09:01:23.206Z,5.93
2022-12-01T09:04:05.318Z,5.95
2022-12-01T09:06:43.334Z,5.91
2022-12-01T09:09:12.698Z,5.89
2022-12-01T09:11:40.331Z,5.90
2022-12-01T09:14:07.100Z,5.93
2022-12-01T09:16:33.939Z,5.94
2022-12-01T09:19:00.875Z,5.95
2022-12-01T09:21:32.788Z,6.01
2022-12-01T09:24:01.017Z,6.04
2022-12-01T09:26:28.730Z,6.05
2022-12-01T09:28:58.072Z,6.08
2022-12-01T09:31:25.466Z,6.09
2022-12-01T09:33:56.580Z,6.11
2022-12-01T09:36:24.053Z,6.15
2022-12-01T09:38:50.835Z,6.17
2022-12-01T09:41:26.178Z,6.19
2022-12-01T09:44:06.030Z,6.23
2022-12-01T09:46:41.521Z,6.25
2022-12-01T09:49:22.852Z,6.27
2022-12-01T09:51:54.700Z,6.29
2022-12-01T09:54:21.736Z,6.32
2022-12-01T09:56:53.329Z,6.35
2022-12-01T09:59:26.321Z,6.37
2022-12-01T10:02:00.316Z,6.39
2022-12-01T10:04:41.902Z,6.40
2022-12-01T10:07:29.782Z,6.44
2022-12-01T10:10:00.097Z,6.49
2022-12-01T10:12:32.331Z,6.49
2022-12-01T10:15:09.349Z,6.60
2022-12-01T10:17:52.641Z,6.58
2022-12-01T10:20:28.560Z,6.55
2022-12-01T10:23:16.687Z,6.56
2022-12-01T10:26:10.627Z,6.68
2022-12-01T10:29:09.798Z,6.72
2022-12-01T10:31:53.253Z,6.75
2022-12-01T10:34:24.400Z,6.75
2022-12-01T10:36:51.375Z,6.77
2022-12-01T10:39:38.546Z,6.79
2022-12-01T10:42:35.647Z,6.82
2022-12-01T10:45:15.797Z,6.85
2022-12-01T10:48:07.151Z,6.87
2022-12-01T10:50:34.463Z,6.88
2022-12-01T10:53:01.391Z,6.79
2022-12-01T10:55:35.000Z,6.78
2022-12-01T10:58:13.753Z,6.79
2022-12-01T11:00:58.957Z,6.80
2022-12-01T11:03:35.890Z,6.82
2022-12-01T11:06:05.924Z,6.84
2022-12-01T11:08:46.771Z,6.85
2022-12-01T11:11:33.656Z,6.87
2022-12-01T11:14:05.136Z,7.00
2022-12-01T11:16:36.944Z,7.03
2022-12-01T11:19:31.143Z,7.04
2022-12-01T11:22:00.705Z,7.06
2022-12-01T11:24:42.529Z,7.06
2022-12-01T11:27:31.736Z,7.07
2022-12-01T11:30:04.934Z,7.09
2022-12-01T11:32:35.598Z,7.10
2022-12-01T11:35:05.065Z,7.12
2022-12-01T11:37:38.035Z,7.13
2022-12-01T11:40:17.600Z,7.16
2022-12-01T11:42:49.504Z,7.17
2022-12-01T11:45:25.031Z,7.20
2022-12-01T11:48:20.863Z,7.21
2022-12-01T11:51:01.565Z,7.23
2022-12-01T11:53:31.250Z,7.24
2022-12-01T11:56:13.246Z,7.25
2022-12-01T11:58:40.360Z,7.26
2022-12-01T12:01:22.125Z,7.28
2022-12-01T12:04:18.209Z,7.30
2022-12-01T12:07:13.579Z,7.31
2022-12-01T12:09:54.643Z,7.30
2022-12-01T12:12:34.212Z,7.31
2022-12-01T12:15:12.283Z,7.32
2022-12-01T12:17:55.131Z,7.33
2022-12-01T12:20:37.169Z,7.33
2022-12-01T12:23:18.135Z,7.33
2022-12-01T12:26:03.596Z,7.32
2022-12-01T12:28:39.603Z,7.32
2022-12-01T12:31:22.380Z,7.31
2022-12-01T12:34:23.713Z,7.31
2022-12-01T12:37:04.964Z,7.29
2022-12-01T12:39:51.255Z,7.30
2022-12-01T12:42:33.611Z,7.30
2022-12-01T12:45:19.127Z,7.30
2022-12-01T12:48:11.282Z,7.30
2022-12-01T12:51:05.304Z,7.32
2022-12-01T12:53:49.559Z,7.33
2022-12-01T12:56:22.080Z,7.33
2022-12-01T12:59:03.199Z,7.35
2022-12-01T13:02:09.793Z,7.35
2022-12-01T13:05:05.721Z,7.37
2022-12-01T13:07:56.751Z,7.37
2022-12-01T13:10:34.641Z,7.37
2022-12-01T13:13:19.919Z,7.37
2022-12-01T13:15:50.347Z,7.38
2022-12-01T13:18:24.846Z,7.38
2022-12-01T13:20:53.661Z,7.38
2022-12-01T13:23:22.052Z,7.37
2022-12-01T13:25:54.478Z,7.36
2022-12-01T13:28:26.243Z,7.35
2022-12-01T13:31:06.903Z,7.34
2022-12-01T13:33:36.213Z,7.34
2022-12-01T13:36:45.110Z,7.28
2022-12-01T13:39:06.633Z,7.18
2022-12-01T13:41:39.652Z,7.16
2022-12-01T13:44:30.127Z,7.15
2022-12-01T13:47:01.577Z,7.15
2022-12-01T13:49:33.787Z,7.13
2022-12-01T13:52:16.014Z,7.12
2022-12-01T13:55:00.202Z,7.10
2022-12-01T13:57:29.781Z,7.11
2022-12-01T13:59:59.576Z,7.10
2022-12-01T14:02:28.800Z,7.09
2022-12-01T14:05:15.667Z,7.09
2022-12-01T14:07:43.497Z,7.09
2022-12-01T14:10:21.344Z,7.08
2022-12-01T14:12:50.647Z,7.09
2022-12-01T14:15:42.463Z,7.08
2022-12-01T14:18:18.363Z,7.05
2022-12-01T14:20:47.703Z,7.05
2022-12-01T14:23:34.690Z,7.03
2022-12-01T14:26:13.191Z,7.06
2022-12-01T14:28:55.144Z,7.04
2022-12-01T14:31:23.460Z,7.03
2022-12-01T14:34:18.954Z,7.01
2022-12-01T14:36:53.449Z,7.11
2022-12-01T14:39:26.278Z,7.13
2022-12-01T14:42:12.674Z,7.07
2022-12-01T14:44:44.933Z,7.00
2022-12-01T14:47:11.723Z,7.07
2022-12-01T14:49:47.544Z,7.12
2022-12-01T14:52:38.987Z,7.11
2022-12-01T14:55:19.881Z,7.10
2022-12-01T14:57:50.387Z,7.10
2022-12-01T15:00:23.934Z,7.09
2022-12-01T15:02:57.370Z,7.08
2022-12-01T15:05:27.425Z,7.07
2022-12-01T15:08:18.708Z,7.06
2022-12-01T15:10:54.884Z,7.04
2022-12-01T15:13:30.538Z,7.01
2022-12-01T15:16:00.688Z,7.01
2022-12-01T15:18:37.272Z,6.98
2022-12-01T15:21:13.809Z,6.97
2022-12-01T15:24:04.850Z,6.95
2022-12-01T15:26:34.433Z,6.93
2022-12-01T15:29:15.701Z,6.91
2022-12-01T15:31:49.377Z,6.91
2022-12-01T15:34:20.169Z,6.91
2022-12-01T15:36:48.337Z,6.90
2022-12-01T15:39:21.426Z,6.89
2022-12-01T15:41:53.954Z,6.83
2022-12-01T15:44:42.668Z,6.84
2022-12-01T15:47:43.739Z,6.82
2022-12-01T15:50:26.541Z,6.80
2022-12-01T15:52:53.448Z,6.78
2022-12-01T15:55:30.452Z,6.75
2022-12-01T15:57:59.151Z,6.73
2022-12-01T16:00:26.810Z,6.72
2022-12-01T16:02:59.421Z,6.70
2022-12-01T16:05:29.329Z,6.69
2022-12-01T16:08:13.517Z,6.69
2022-12-01T16:10:40.579Z,6.67
2022-12-01T16:13:35.391Z,6.67
2022-12-01T16:16:31.605Z,6.68
2022-12-01T16:19:02.377Z,6.68
2022-12-01T16:21:33.652Z,6.68
2022-12-01T16:24:02.842Z,6.65
2022-12-01T16:26:30.600Z,6.67
2022-12-01T16:28:58.173Z,6.65
2022-12-01T16:31:27.150Z,6.65
2022-12-01T16:34:13.761Z,6.62
2022-12-01T16:36:46.010Z,6.59
2022-12-01T16:39:16.358Z,6.64
2022-12-01T16:41:47.971Z,6.59
2022-12-01T16:44:30.620Z,6.58
2022-12-01T16:46:57.384Z,6.58
2022-12-01T16:49:24.193Z,6.58
2022-12-01T16:51:56.077Z,6.55
2022-12-01T16:54:24.274Z,6.56
2022-12-01T16:56:51.396Z,6.54
2022-12-01T16:59:18.617Z,6.53
2022-12-01T17:01:45.525Z,6.53
2022-12-01T17:04:12.671Z,6.50
2022-12-01T17:06:39.530Z,6.52
2022-12-01T17:09:06.781Z,6.50
2022-12-01T17:11:33.598Z,6.49
2022-12-01T17:14:00.349Z,6.47
2022-12-01T17:16:27.700Z,6.40
2022-12-01T17:18:54.856Z,6.30
2022-12-01T17:21:22.002Z,6.26
2022-12-01T17:23:48.797Z,6.30
2022-12-01T17:26:22.816Z,6.24
2022-12-01T17:28:50.091Z,6.24
2022-12-01T17:31:17.293Z,6.25
2022-12-01T17:33:44.228Z,6.23
2022-12-01T17:36:13.217Z,6.25
2022-12-01T17:38:43.408Z,6.35
2022-12-01T17:41:16.874Z,6.22
2022-12-01T17:43:44.314Z,6.19
2022-12-01T17:46:12.778Z,6.18
2022-12-01T17:48:43.268Z,6.20
2022-12-01T17:51:13.296Z,6.19
2022-12-01T17:53:40.599Z,6.19
2022-12-01T17:56:09.691Z,6.17
2022-12-01T17:58:37.548Z,6.17
2022-12-01T18:01:05.477Z,6.16
2022-12-01T18:03:32.420Z,6.17
2022-12-01T18:06:01.602Z,6.13
2022-12-01T18:08:31.138Z,6.10
2022-12-01T18:11:03.173Z,6.10
2022-12-01T18:13:30.082Z,6.11
2022-12-01T18:15:57.444Z,6.08
2022-12-01T18:18:24.574Z,6.08
2022-12-01T18:20:51.546Z,6.09
2022-12-01T18:23:18.619Z,6.09
2022-12-01T18:25:46.992Z,6.06
2022-12-01T18:28:14.962Z,6.06
2022-12-01T18:30:42.169Z,6.05
2022-12-01T18:33:12.744Z,6.06
2022-12-01T18:35:44.883Z,6.03
2022-12-01T18:38:12.113Z,6.02
2022-12-01T18:40:39.893Z,6.01
2022-12-01T18:43:07.079Z,6.03
2022-12-01T18:45:33.913Z,6.01
2022-12-01T18:48:00.954Z,6.02
2022-12-01T18:50:28.221Z,6.00
2022-12-01T18:52:55.068Z,5.98
2022-12-01T18:55:22.195Z,6.00
2022-12-01T18:57:48.997Z,6.00
2022-12-01T19:00:16.511Z,6.01
2022-12-01T19:02:43.971Z,6.12
2022-12-01T19:05:11.351Z,6.12
2022-12-01T19:07:38.667Z,6.11
2022-12-01T19:10:06.603Z,6.12
2022-12-01T19:12:39.360Z,6.09
2022-12-01T19:15:08.947Z,6.05
2022-12-01T19:17:36.263Z,6.09
2022-12-01T19:20:05.112Z,6.07
2022-12-01T19:22:33.148Z,6.07
2022-12-01T19:25:00.570Z,6.01
2022-12-01T19:27:29.002Z,6.03
2022-12-01T19:29:56.312Z,5.98
2022-12-01T19:32:23.442Z,5.95
2022-12-01T19:34:50.730Z,5.95
2022-12-01T19:37:22.461Z,5.93
2022-12-01T19:39:49.901Z,5.83
2022-12-01T19:42:17.177Z,5.85
2022-12-01T19:44:44.420Z,5.87
2022-12-01T19:47:11.735Z,5.85
2022-12-01T19:49:38.597Z,5.83
2022-12-01T19:52:08.629Z,5.84
2022-12-01T19:54:38.617Z,5.83
2022-12-01T19:57:05.545Z,5.82
2022-12-01T19:59:32.579Z,5.81
2022-12-01T20:01:59.870Z,5.82
2022-12-01T20:04:27.245Z,5.80
2022-12-01T20:06:54.532Z,5.80
2022-12-01T20:09:21.733Z,5.80
2022-12-01T20:11:49.033Z,5.80
2022-12-01T20:14:22.221Z,5.80
2022-12-01T20:16:49.733Z,5.79
2022-12-01T20:19:19.820Z,5.75
2022-12-01T20:21:47.352Z,5.73
2022-12-01T20:24:17.831Z,5.73
2022-12-01T20:26:49.021Z,5.72
2022-12-01T20:29:26.869Z,5.69
2022-12-01T20:31:57.976Z,5.68
2022-12-01T20:34:34.377Z,5.69
2022-12-01T20:37:03.011Z,5.65
2022-12-01T20:39:32.915Z,5.64
2022-12-01T20:42:00.782Z,5.63
2022-12-01T20:44:28.010Z,5.60
2022-12-01T20:46:55.420Z,5.55
2022-12-01T20:49:23.022Z,5.51
2022-12-01T20:51:50.347Z,5.39
2022-12-01T20:54:27.715Z,5.47
2022-12-01T20:56:55.892Z,5.46
2022-12-01T20:59:23.683Z,5.43
2022-12-01T21:01:50.997Z,5.39
2022-12-01T21:04:17.766Z,5.38
2022-12-01T21:06:44.584Z,5.36
2022-12-01T21:09:13.439Z,5.35
2022-12-01T21:12:07.077Z,5.32
2022-12-01T21:14:41.912Z,5.33
2022-12-01T21:17:34.231Z,5.26
2022-12-01T21:20:21.986Z,5.25
2022-12-01T21:22:50.099Z,5.21
2022-12-01T21:25:22.804Z,5.18
2022-12-01T21:27:50.223Z,5.16
2022-12-01T21:30:21.979Z,5.14
2022-12-01T21:32:49.882Z,5.14
2022-12-01T21:35:22.238Z,5.11
2022-12-01T21:37:49.519Z,5.12
2022-12-01T21:40:22.683Z,5.08
2022-12-01T21:42:50.069Z,5.07
2022-12-01T21:45:32.121Z,5.07
2022-12-01T21:48:17.161Z,5.04
2022-12-01T21:50:49.256Z,5.05
2022-12-01T21:53:20.533Z,5.01
2022-12-01T21:55:47.989Z,4.96
2022-12-01T21:58:30.187Z,4.92
2022-12-01T22:00:58.978Z,4.93
2022-12-01T22:03:45.104Z,4.88
2022-12-01T22:06:34.678Z,4.86
2022-12-01T22:09:12.248Z,4.87
2022-12-01T22:11:39.052Z,4.86
2022-12-01T22:14:08.781Z,4.77
2022-12-01T22:16:40.528Z,4.77
2022-12-01T22:19:16.439Z,4.74
2022-12-01T22:21:48.135Z,4.68
2022-12-01T22:24:22.018Z,4.67
2022-12-01T22:27:03.265Z,4.62
2022-12-01T22:29:33.859Z,4.56
2022-12-01T22:32:23.858Z,4.61
2022-12-01T22:34:57.671Z,4.56
2022-12-01T22:37:35.168Z,4.53
2022-12-01T22:40:02.296Z,4.68
2022-12-01T22:42:34.651Z,4.66
2022-12-01T22:45:14.906Z,4.66
2022-12-01T22:47:41.654Z,4.65
2022-12-01T22:50:27.207Z,4.65
2022-12-01T22:52:55.926Z,4.61
2022-12-01T22:55:22.757Z,4.60
2022-12-01T22:57:49.487Z,4.58
2022-12-01T23:00:19.137Z,4.58
2022-12-01T23:02:48.534Z,4.52
2022-12-01T23:05:27.518Z,4.52
2022-12-01T23:07:55.332Z,4.52
2022-12-01T23:10:33.737Z,4.50
2022-12-01T23:13:08.781Z,4.52
2022-12-01T23:15:40.543Z,4.53
2022-12-01T23:18:28.095Z,4.51
2022-12-01T23:21:01.942Z,4.47
2022-12-01T23:23:30.966Z,4.48
2022-12-01T23:25:58.945Z,4.47
2022-12-01T23:28:25.670Z,4.47
2022-12-01T23:30:56.014Z,4.47
2022-12-01T23:33:25.981Z,4.46
2022-12-01T23:36:07.015Z,4.43
2022-12-01T23:38:39.827Z,4.33
2022-12-01T23:41:12.577Z,4.28
2022-12-01T23:43:42.806Z,4.27
2022-12-01T23:46:22.398Z,4.37
2022-12-01T23:49:04.874Z,4.42
2022-12-01T23:51:36.167Z,4.40
2022-12-01T23:54:29.012Z,4.39
2022-12-01T23:56:58.190Z,4.38
2022-12-01T23:59:25.583Z,4.38
